Time;durP1;ratioP1;P1;durP2;ratioP2;P2;SDS_P1;SDS_P2;PMS_P1;PMS_P2;Temp;Humidity;BMP_temperature;BMP_pressure;BME280_temperature;BME280_humidity;BME280_pressure;Samples;Min_cycle;Max_cycle;Signal;HPM_P1;HPM_P2
2023/10/28 00:00:31;;;;;;;2.35;1.15;;;;;;;4.69;75.31;100363.94;6123732;23;20500;-76
2023/10/28 00:02:58;;;;;;;2.15;1.10;;;;;;;4.68;75.32;100361.38;6118780;23;20025;-72
2023/10/28 00:05:25;;;;;;;1.98;1.13;;;;;;;4.67;75.24;100365.69;6120054;23;20096;-72
2023/10/28 00:07:52;;;;;;;2.15;1.27;;;;;;;4.67;75.22;100363.09;6120525;23;20037;-71
2023/10/28 00:10:21;;;;;;;2.35;0.80;;;;;;;4.67;75.21;100365.69;6121076;23;20029;-72
2023/10/28 00:12:49;;;;;;;0.88;0.80;;;;;;;4.67;75.04;100373.44;6121446;23;20346;-76
2023/10/28 00:15:18;;;;;;;6.82;1.17;;;;;;;4.66;75.10;100369.13;6122182;23;20343;-76
2023/10/28 00:17:47;;;;;;;2.03;0.90;;;;;;;4.66;75.25;100374.28;6121621;23;20105;-76
2023/10/28 00:20:17;;;;;;;1.30;0.80;;;;;;;4.66;75.07;100371.72;6123270;23;20488;-76
2023/10/28 00:22:44;;;;;;;1.80;1.00;;;;;;;4.66;75.05;100374.28;6118541;23;20029;-76
2023/10/28 00:25:11;;;;;;;1.42;1.15;;;;;;;4.65;75.17;100370.00;6122824;23;20073;-76
2023/10/28 00:27:40;;;;;;;2.45;1.40;;;;;;;4.63;75.04;100369.13;6123329;23;20349;-77
2023/10/28 00:30:09;;;;;;;1.85;1.10;;;;;;;4.62;74.93;100367.41;6122499;23;20021;-76
2023/10/28 00:32:36;;;;;;;1.55;0.93;;;;;;;4.64;75.14;100369.97;6123241;23;20025;-76
2023/10/28 00:35:04;;;;;;;1.83;1.13;;;;;;;4.56;75.23;100351.91;6122536;23;20018;-76
2023/10/28 00:37:30;;;;;;;1.15;0.90;;;;;;;4.62;75.03;100364.84;6122953;23;20369;-76
2023/10/28 00:39:57;;;;;;;1.00;0.90;;;;;;;4.60;74.79;100360.50;6122476;23;20022;-76
2023/10/28 00:42:24;;;;;;;1.58;1.10;;;;;;;4.62;74.97;100366.56;6123688;23;20341;-77
2023/10/28 00:44:54;;;;;;;3.83;1.38;;;;;;;4.61;74.99;100368.28;6121218;23;20060;-77
2023/10/28 00:47:22;;;;;;;1.92;1.10;;;;;;;4.61;75.12;100370.00;6121890;23;20029;-76
2023/10/28 00:49:49;;;;;;;2.05;1.17;;;;;;;4.59;74.89;100372.59;6122813;23;20021;-76
2023/10/28 00:52:19;;;;;;;2.13;1.17;;;;;;;4.60;74.90;100368.28;6123604;23;20022;-76
2023/10/28 00:54:47;;;;;;;2.03;1.15;;;;;;;4.59;75.05;100370.00;6123120;23;20029;-76
2023/10/28 00:57:15;;;;;;;2.35;1.70;;;;;;;4.58;74.63;100368.28;6121939;23;20033;-76
2023/10/28 00:59:42;;;;;;;2.95;1.17;;;;;;;4.58;74.93;100370.88;6123206;23;20406;-76
2023/10/28 01:02:11;;;;;;;3.67;1.13;;;;;;;4.58;74.84;100370.00;6122324;23;20026;-76
2023/10/28 01:04:38;;;;;;;1.50;0.73;;;;;;;4.57;74.93;100369.13;6121633;23;20026;-76
2023/10/28 01:07:06;;;;;;;1.42;0.85;;;;;;;4.56;74.79;100369.16;6118887;23;20082;-76
2023/10/28 01:09:32;;;;;;;2.33;0.90;;;;;;;4.56;74.86;100366.56;6121924;23;20469;-76
2023/10/28 01:11:59;;;;;;;2.65;1.05;;;;;;;4.55;74.87;100375.16;6122142;23;20078;-75
2023/10/28 01:14:26;;;;;;;1.27;0.98;;;;;;;4.54;74.65;100379.50;6120802;23;20044;-75
2023/10/28 01:16:54;;;;;;;2.83;0.82;;;;;;;4.53;74.80;100379.50;6121558;23;20029;-74
2023/10/28 01:19:22;;;;;;;1.80;1.10;;;;;;;4.53;74.79;100372.59;6117910;23;20025;-74
2023/10/28 01:21:50;;;;;;;1.50;0.95;;;;;;;4.52;74.92;100376.03;6122086;23;20024;-76
2023/10/28 01:24:17;;;;;;;1.70;0.93;;;;;;;4.51;74.77;100371.72;6122585;23;20037;-76
2023/10/28 01:26:44;;;;;;;0.98;0.80;;;;;;;4.50;74.91;100373.47;6122761;23;20021;-76
2023/10/28 01:29:12;;;;;;;1.08;0.80;;;;;;;4.51;74.67;100376.91;6122336;23;20018;-76
2023/10/28 01:31:39;;;;;;;2.10;1.02;;;;;;;4.50;74.72;100373.47;6121933;23;20022;-76
2023/10/28 01:34:06;;;;;;;1.20;0.90;;;;;;;4.50;74.90;100370.03;6122427;23;20064;-78
2023/10/28 01:36:34;;;;;;;1.60;1.00;;;;;;;4.46;74.79;100366.53;6120784;23;20081;-76
2023/10/28 01:39:01;;;;;;;1.63;1.15;;;;;;;4.49;74.85;100376.88;6123173;23;20077;-76
2023/10/28 01:41:28;;;;;;;1.10;0.75;;;;;;;4.49;74.89;100371.72;6123246;23;20032;-76
2023/10/28 01:43:55;;;;;;;1.90;0.80;;;;;;;4.48;74.72;100372.59;6118879;23;20022;-76
2023/10/28 01:46:21;;;;;;;0.90;0.80;;;;;;;4.48;74.69;100369.16;6121314;23;20022;-76
2023/10/28 01:48:48;;;;;;;1.27;1.08;;;;;;;4.47;74.91;100382.94;6123985;23;20022;-76
2023/10/28 01:51:15;;;;;;;1.83;1.02;;;;;;;4.46;74.76;100376.03;6120303;23;20022;-76
2023/10/28 01:53:42;;;;;;;2.45;1.15;;;;;;;4.45;74.82;100371.75;6122866;23;20445;-76
2023/10/28 01:56:10;;;;;;;1.38;1.15;;;;;;;4.40;74.74;100370.88;6121082;23;20022;-76
2023/10/28 01:58:37;;;;;;;1.80;1.33;;;;;;;4.43;74.55;100373.44;6122176;23;20022;-77
2023/10/28 02:01:04;;;;;;;2.85;1.00;;;;;;;4.42;74.83;100382.94;6121199;23;20025;-76
2023/10/28 02:03:32;;;;;;;1.63;1.05;;;;;;;4.42;74.71;100379.50;6121786;23;20117;-77
2023/10/28 02:05:59;;;;;;;1.85;1.00;;;;;;;4.37;74.81;100376.03;6122229;23;20029;-75
2023/10/28 02:08:25;;;;;;;2.60;1.27;;;;;;;4.39;74.61;100380.34;6115747;23;20022;-76
2023/10/28 02:10:52;;;;;;;1.40;1.00;;;;;;;4.39;74.54;100380.34;6120324;23;20444;-76
2023/10/28 02:13:22;;;;;;;1.15;1.00;;;;;;;4.38;74.48;100375.16;6122186;23;20018;-76
2023/10/28 02:15:49;;;;;;;1.70;1.30;;;;;;;4.36;74.57;100374.31;6122206;23;20018;-76
2023/10/28 02:18:18;;;;;;;2.38;1.13;;;;;;;4.37;74.53;100371.72;6122081;23;20048;-76
2023/10/28 02:20:45;;;;;;;1.50;0.90;;;;;;;4.36;74.45;100366.56;6122294;23;20350;-76
2023/10/28 02:23:13;;;;;;;1.20;0.90;;;;;;;4.35;74.19;100367.41;6123835;23;20032;-78
2023/10/28 02:25:41;;;;;;;1.38;0.80;;;;;;;4.35;74.47;100370.00;6124497;23;20026;-78
2023/10/28 02:28:08;;;;;;;1.30;0.77;;;;;;;4.33;74.30;100372.59;6124262;23;20372;-78
2023/10/28 02:30:39;;;;;;;0.80;0.80;;;;;;;4.33;74.42;100379.50;6124673;23;20021;-78
2023/10/28 02:33:06;;;;;;;1.75;0.85;;;;;;;4.32;73.94;100380.34;6119903;23;20028;-78
2023/10/28 02:35:33;;;;;;;1.88;0.82;;;;;;;4.29;74.15;100382.06;6124121;23;20022;-77
2023/10/28 02:38:00;;;;;;;1.00;0.60;;;;;;;4.26;74.09;100386.38;6124027;23;20406;-78
2023/10/28 02:40:27;;;;;;;1.55;0.70;;;;;;;4.25;74.02;100398.44;6119786;23;20018;-78
2023/10/28 02:42:55;;;;;;;1.17;0.60;;;;;;;4.23;73.76;100387.22;6124936;23;20025;-77
2023/10/28 02:45:22;;;;;;;1.63;0.60;;;;;;;4.20;73.89;100383.78;6123300;23;20102;-78
2023/10/28 02:47:50;;;;;;;3.55;0.70;;;;;;;4.19;73.94;100388.09;6124041;23;20026;-78
2023/10/28 02:50:19;;;;;;;2.53;1.15;;;;;;;4.12;73.72;100380.31;6123078;23;20025;-78
2023/10/28 02:52:45;;;;;;;1.25;0.60;;;;;;;4.17;73.38;100386.38;6124397;23;20058;-77
2023/10/28 02:55:13;;;;;;;2.55;0.70;;;;;;;4.14;73.40;100400.16;6123178;23;20028;-76
2023/10/28 02:57:40;;;;;;;1.20;0.60;;;;;;;4.14;73.57;100394.13;6124532;23;20364;-79
2023/10/28 03:00:09;;;;;;;2.70;0.60;;;;;;;4.11;73.36;100400.13;6123704;23;20026;-77
2023/10/28 03:02:36;;;;;;;1.58;0.45;;;;;;;4.10;73.25;100398.44;6123330;23;20682;-78
2023/10/28 03:05:05;;;;;;;1.10;0.50;;;;;;;4.09;72.53;100404.44;6122914;23;20054;-78
2023/10/28 03:07:33;;;;;;;1.75;0.50;;;;;;;4.05;72.31;100403.56;6123828;23;20335;-78
2023/10/28 03:09:59;;;;;;;3.28;0.50;;;;;;;4.04;72.73;100393.22;6123468;23;20030;-78
2023/10/28 03:12:26;;;;;;;1.20;0.70;;;;;;;4.01;72.38;100403.56;6122612;23;20018;-79
2023/10/28 03:14:53;;;;;;;1.42;0.57;;;;;;;4.00;72.66;100396.66;6124715;23;20092;-77
2023/10/28 03:17:20;;;;;;;7.38;0.80;;;;;;;3.98;72.60;100395.78;6123384;23;20402;-78
2023/10/28 03:19:47;;;;;;;1.13;0.60;;;;;;;3.98;72.67;100399.22;6125025;23;20345;-78
2023/10/28 03:22:15;;;;;;;0.93;0.50;;;;;;;3.97;72.42;100404.41;6122720;23;20028;-77
2023/10/28 03:24:42;;;;;;;2.53;0.45;;;;;;;3.97;72.60;100401.84;6123742;23;20021;-78
2023/10/28 03:27:09;;;;;;;1.55;0.73;;;;;;;3.95;72.27;100400.97;6122016;23;20037;-78
2023/10/28 03:29:36;;;;;;;1.60;0.50;;;;;;;3.94;72.39;100399.25;6123153;23;20025;-78
2023/10/28 03:32:02;;;;;;;1.08;0.55;;;;;;;3.94;72.31;100413.03;6120811;23;20036;-75
2023/10/28 03:34:30;;;;;;;1.33;0.40;;;;;;;3.90;72.39;100402.66;6118081;23;20026;-75
2023/10/28 03:36:57;;;;;;;2.42;0.40;;;;;;;3.91;72.20;100401.81;6121184;23;20018;-74
2023/10/28 03:39:25;;;;;;;0.90;0.47;;;;;;;3.91;71.97;100407.00;6120996;23;20057;-74
2023/10/28 03:41:53;;;;;;;0.68;0.40;;;;;;;3.89;71.90;100408.69;6121874;23;20018;-72
2023/10/28 03:44:20;;;;;;;3.88;0.47;;;;;;;3.87;71.94;100406.13;6121394;23;20072;-71
2023/10/28 03:46:47;;;;;;;3.25;0.40;;;;;;;3.87;72.03;100395.78;6119853;23;20022;-72
2023/10/28 03:49:15;;;;;;;2.45;0.40;;;;;;;3.86;71.66;100400.94;6121870;23;20030;-73
2023/10/28 03:51:42;;;;;;;0.60;0.30;;;;;;;3.85;71.73;100396.66;6118364;23;20026;-73
2023/10/28 03:54:09;;;;;;;0.90;0.50;;;;;;;3.83;71.63;100401.78;6120136;23;20461;-73
2023/10/28 03:56:37;;;;;;;2.85;0.63;;;;;;;3.80;71.53;100394.88;6120354;23;20018;-73
2023/10/28 03:59:05;;;;;;;1.92;0.52;;;;;;;3.80;71.31;100405.22;6091277;23;20109;-73
2023/10/28 04:01:31;;;;;;;0.90;0.50;;;;;;;3.80;71.51;100405.22;6122322;23;20026;-73
2023/10/28 04:03:58;;;;;;;1.95;0.50;;;;;;;3.80;71.54;100405.22;6120242;23;20032;-73
2023/10/28 04:06:25;;;;;;;1.13;0.40;;;;;;;3.80;71.25;100397.47;6120051;23;20018;-73
2023/10/28 04:08:52;;;;;;;1.17;0.40;;;;;;;3.79;70.89;100406.09;6120203;23;20025;-73
2023/10/28 04:11:18;;;;;;;0.88;0.40;;;;;;;3.77;70.83;100389.72;6120162;23;20030;-73
2023/10/28 04:13:48;;;;;;;1.60;0.40;;;;;;;3.76;70.49;100400.06;6119391;23;20526;-74
2023/10/28 04:16:15;;;;;;;2.10;0.50;;;;;;;3.74;70.54;100400.03;6118319;23;20037;-73
2023/10/28 04:18:41;;;;;;;0.57;0.40;;;;;;;3.74;70.77;100399.19;6120470;23;20100;-72
2023/10/28 04:21:08;;;;;;;3.80;0.60;;;;;;;3.73;70.58;100400.91;6120267;23;20021;-74
2023/10/28 04:23:35;;;;;;;1.00;0.50;;;;;;;3.72;70.79;100404.34;6120207;23;20022;-74
2023/10/28 04:26:02;;;;;;;1.08;0.30;;;;;;;3.73;70.92;100403.50;6119838;23;20022;-73
2023/10/28 04:28:29;;;;;;;0.55;0.30;;;;;;;3.72;70.81;100404.34;6120057;23;20025;-74
2023/10/28 04:30:58;;;;;;;1.55;0.40;;;;;;;3.71;70.39;100405.19;6119564;23;20022;-73
2023/10/28 04:33:25;;;;;;;0.65;0.40;;;;;;;3.69;70.53;100401.75;6120126;23;20024;-73
2023/10/28 04:35:52;;;;;;;2.70;0.40;;;;;;;3.68;70.61;100405.19;6119812;23;20018;-73
2023/10/28 04:38:19;;;;;;;1.10;0.50;;;;;;;3.68;70.36;100410.34;6120110;23;20036;-72
2023/10/28 04:40:47;;;;;;;1.70;0.40;;;;;;;3.67;70.41;100415.50;6119326;23;20420;-78
2023/10/28 04:43:13;;;;;;;1.88;0.40;;;;;;;3.65;70.56;100420.69;6126737;23;20025;-82
2023/10/28 04:45:42;;;;;;;1.00;0.40;;;;;;;3.64;70.13;100413.78;6125747;23;20030;-85
2023/10/28 04:48:13;;;;;;;0.43;0.30;;;;;;;3.64;69.98;100413.78;6125037;23;20702;-84
2023/10/28 04:50:41;;;;;;;3.05;0.40;;;;;;;3.62;70.16;100419.81;6125294;23;20021;-84
2023/10/28 04:53:08;;;;;;;0.80;0.40;;;;;;;3.59;69.94;100418.94;6125713;23;20024;-77
2023/10/28 04:55:34;;;;;;;1.42;0.50;;;;;;;3.50;70.00;100399.94;6124371;23;20018;-77
2023/10/28 04:58:02;;;;;;;1.88;0.40;;;;;;;3.58;69.91;100418.91;6125122;23;20028;-77
2023/10/28 05:00:29;;;;;;;0.85;0.45;;;;;;;3.58;70.26;100416.34;6121975;23;20076;-77
2023/10/28 05:02:56;;;;;;;2.80;0.40;;;;;;;3.57;70.31;100418.06;6125336;23;20430;-78
2023/10/28 05:05:24;;;;;;;2.38;0.65;;;;;;;3.57;70.17;100412.03;6123857;23;20018;-77
2023/10/28 05:07:51;;;;;;;6.55;0.50;;;;;;;3.56;70.35;100425.81;6117889;23;20026;-77
2023/10/28 05:10:18;;;;;;;1.17;0.40;;;;;;;3.57;70.40;100422.38;6123063;23;20021;-77
2023/10/28 05:12:44;;;;;;;0.60;0.30;;;;;;;3.55;70.34;100424.06;6116794;23;20018;-77
2023/10/28 05:15:11;;;;;;;1.15;0.40;;;;;;;3.54;70.04;100422.34;6122030;23;20667;-77
2023/10/28 05:17:39;;;;;;;2.90;0.50;;;;;;;3.52;70.18;100418.91;6122981;23;20462;-77
2023/10/28 05:20:07;;;;;;;3.72;0.75;;;;;;;3.50;70.39;100431.81;6121084;23;20476;-76
2023/10/28 05:22:36;;;;;;;1.70;0.55;;;;;;;3.50;70.59;100430.94;6120767;23;20025;-76
2023/10/28 05:25:04;;;;;;;0.75;0.50;;;;;;;3.50;70.36;100425.75;6122614;23;20022;-77
2023/10/28 05:27:31;;;;;;;1.20;0.47;;;;;;;3.47;70.48;100429.22;6121254;23;20026;-77
2023/10/28 05:29:59;;;;;;;2.67;0.50;;;;;;;3.47;70.50;100425.75;6121744;23;20032;-77
2023/10/28 05:32:25;;;;;;;1.60;0.45;;;;;;;3.46;70.08;100424.03;6119821;23;20021;-77
2023/10/28 05:34:52;;;;;;;0.98;0.40;;;;;;;3.44;70.51;100428.31;6124913;23;20024;-77
2023/10/28 05:37:19;;;;;;;2.08;0.50;;;;;;;3.42;70.56;100428.31;6121555;23;20105;-77
2023/10/28 05:39:47;;;;;;;1.10;0.40;;;;;;;3.41;70.38;100425.72;6122523;23;20033;-77
2023/10/28 05:42:15;;;;;;;2.92;0.50;;;;;;;3.39;70.41;100433.47;6124369;23;20021;-77
2023/10/28 05:44:42;;;;;;;1.48;0.43;;;;;;;3.37;70.47;100440.34;6120336;23;20528;-77
2023/10/28 05:47:09;;;;;;;1.50;0.50;;;;;;;3.34;70.42;100436.03;6123215;23;20022;-78
2023/10/28 05:49:36;;;;;;;1.05;0.40;;;;;;;3.30;70.49;100435.97;6119986;23;20100;-77
2023/10/28 05:52:02;;;;;;;1.95;0.70;;;;;;;3.29;70.74;100442.00;6122858;23;20460;-78
2023/10/28 05:54:30;;;;;;;2.92;0.60;;;;;;;3.26;70.46;100442.84;6122576;23;20026;-79
2023/10/28 05:56:59;;;;;;;1.77;0.40;;;;;;;3.25;70.77;100446.31;6123496;23;20018;-79
2023/10/28 05:59:26;;;;;;;1.33;0.40;;;;;;;3.23;70.45;100453.16;6120390;23;20030;-79
2023/10/28 06:01:52;;;;;;;1.70;0.40;;;;;;;3.22;70.48;100450.59;6119875;23;20028;-74
2023/10/28 06:04:21;;;;;;;0.93;0.40;;;;;;;3.18;70.54;100454.84;6118501;23;20341;-74
2023/10/28 06:06:48;;;;;;;2.33;0.52;;;;;;;3.16;70.42;100456.56;6114307;23;20025;-73
2023/10/28 06:09:15;;;;;;;0.70;0.40;;;;;;;3.12;70.29;100455.66;6118603;23;20028;-73
2023/10/28 06:11:42;;;;;;;3.72;0.60;;;;;;;3.08;70.75;100453.94;6115499;23;20097;-74
2023/10/28 06:14:12;;;;;;;1.02;0.40;;;;;;;3.08;70.35;100459.09;6118306;23;20141;-74
2023/10/28 06:16:39;;;;;;;0.60;0.35;;;;;;;3.06;70.21;100459.94;6116389;23;20461;-73
2023/10/28 06:19:06;;;;;;;1.88;0.40;;;;;;;3.04;70.21;100471.94;6115898;23;20390;-73
2023/10/28 06:21:33;;;;;;;1.83;1.02;;;;;;;3.01;70.45;100475.38;6118118;23;20018;-74
2023/10/28 06:24:00;;;;;;;1.73;0.47;;;;;;;3.00;70.10;100475.38;6118980;23;20089;-74
2023/10/28 06:26:27;;;;;;;2.85;0.60;;;;;;;2.97;70.02;100477.94;6114406;23;20462;-73
2023/10/28 06:28:54;;;;;;;0.90;0.50;;;;;;;2.92;70.07;100478.75;6119325;23;20040;-74
2023/10/28 06:31:22;;;;;;;0.80;0.60;;;;;;;2.91;70.43;100484.78;6112673;23;20489;-73
2023/10/28 06:33:49;;;;;;;1.27;0.60;;;;;;;2.89;70.20;100486.47;6119154;23;20476;-74
2023/10/28 06:36:17;;;;;;;2.75;0.80;;;;;;;2.87;70.42;100490.75;6116229;23;20059;-74
2023/10/28 06:38:44;;;;;;;1.20;0.50;;;;;;;2.86;70.39;100493.31;6119558;23;20597;-73
2023/10/28 06:41:11;;;;;;;0.85;0.47;;;;;;;2.82;70.13;100497.59;6113613;23;20018;-73
2023/10/28 06:43:38;;;;;;;1.10;0.45;;;;;;;2.80;70.42;100495.84;6117990;23;20028;-73
2023/10/28 06:46:05;;;;;;;1.98;0.52;;;;;;;2.79;70.36;100499.25;6115392;23;20021;-74
2023/10/28 06:48:34;;;;;;;2.95;0.50;;;;;;;2.76;70.36;100506.97;6119411;23;20029;-73
2023/10/28 06:51:02;;;;;;;3.60;0.50;;;;;;;2.75;70.44;100515.56;6117749;23;20026;-73
2023/10/28 06:53:29;;;;;;;2.15;1.15;;;;;;;2.72;70.24;100511.25;6120742;23;20080;-73
2023/10/28 06:55:56;;;;;;;0.98;0.70;;;;;;;2.70;70.62;100519.00;6113168;23;20081;-73
2023/10/28 06:58:23;;;;;;;4.07;1.75;;;;;;;2.70;70.33;100518.09;6120646;23;20022;-73
2023/10/28 07:00:50;;;;;;;11.90;4.45;;;;;;;2.70;70.79;100525.84;6116578;23;20025;-74
2023/10/28 07:03:17;;;;;;;1.35;0.68;;;;;;;2.69;70.57;100518.97;6117740;23;20018;-73
2023/10/28 07:05:46;;;;;;;3.95;0.65;;;;;;;2.68;70.80;100530.13;6116946;23;20030;-75
2023/10/28 07:08:15;;;;;;;3.58;0.98;;;;;;;2.66;70.59;100526.66;6117452;23;20029;-73
2023/10/28 07:10:42;;;;;;;2.17;0.70;;;;;;;2.67;70.47;100528.38;6116202;23;20029;-73
2023/10/28 07:13:09;;;;;;;0.60;0.35;;;;;;;2.67;70.47;100533.56;6122460;23;20025;-77
2023/10/28 07:15:36;;;;;;;1.75;0.73;;;;;;;2.67;70.47;100536.13;6123047;23;20030;-77
2023/10/28 07:18:05;;;;;;;0.47;0.40;;;;;;;2.67;70.77;100536.13;6124948;23;20030;-78
2023/10/28 07:20:32;;;;;;;53.72;2.03;;;;;;;2.67;70.74;100528.38;6120336;23;20050;-78
2023/10/28 07:23:02;;;;;;;10.07;0.75;;;;;;;2.68;70.59;100536.16;6124541;23;20050;-76
2023/10/28 07:25:29;;;;;;;351.60;29.10;;;;;;;2.69;70.57;100539.59;6123036;23;20028;-79
2023/10/28 07:27:56;;;;;;;109.20;9.00;;;;;;;2.66;70.56;100531.84;6124306;23;20136;-75
2023/10/28 07:30:24;;;;;;;3.85;0.60;;;;;;;2.70;70.73;100538.72;6126588;23;20026;-76
2023/10/28 07:32:51;;;;;;;5.57;1.38;;;;;;;2.69;70.40;100537.00;6125053;23;20026;-81
2023/10/28 07:35:18;;;;;;;11.73;4.43;;;;;;;2.68;70.52;100543.91;6128517;23;20368;-79
2023/10/28 07:37:45;;;;;;;6.78;2.72;;;;;;;2.72;70.32;100552.53;6125972;23;20409;-78
2023/10/28 07:40:13;;;;;;;2.53;1.35;;;;;;;2.72;70.69;100555.09;6124192;23;20026;-80
2023/10/28 07:42:40;;;;;;;4.97;2.13;;;;;;;2.73;70.57;100551.66;6123672;23;20048;-81
2023/10/28 07:45:08;;;;;;;9.27;3.72;;;;;;;2.74;70.62;100556.00;6124661;23;20022;-76
2023/10/28 07:47:35;;;;;;;2.40;1.30;;;;;;;2.77;70.78;100561.19;6123321;23;20057;-83
2023/10/28 07:50:02;;;;;;;5.88;0.50;;;;;;;2.78;70.66;100560.31;6124084;23;20028;-79
2023/10/28 07:52:29;;;;;;;1.65;0.50;;;;;;;2.80;71.03;100560.34;6125900;23;20022;-77
2023/10/28 07:54:56;;;;;;;2.05;0.55;;;;;;;2.82;70.83;100559.50;6127806;23;20456;-77
2023/10/28 07:57:24;;;;;;;0.85;0.40;;;;;;;2.83;70.75;100565.53;6126111;23;20022;-81
2023/10/28 07:59:52;;;;;;;0.68;0.40;;;;;;;2.80;70.45;100550.88;6127059;23;20022;-80
2023/10/28 08:02:19;;;;;;;2.42;0.73;;;;;;;2.89;70.47;100563.84;6126145;23;20465;-82
2023/10/28 08:04:46;;;;;;;0.52;0.30;;;;;;;2.91;70.81;100575.06;6127091;23;20025;-77
2023/10/28 08:07:14;;;;;;;4.47;0.40;;;;;;;2.94;70.51;100571.66;6124488;23;20338;-80
2023/10/28 08:09:40;;;;;;;2.35;0.50;;;;;;;2.95;69.90;100575.09;6127113;23;20025;-82
2023/10/28 08:12:08;;;;;;;0.60;0.43;;;;;;;2.98;69.94;100573.41;6122318;23;20096;-78
2023/10/28 08:14:36;;;;;;;1.70;0.45;;;;;;;3.01;70.32;100580.31;6126300;23;20102;-78
2023/10/28 08:17:05;;;;;;;1.48;0.70;;;;;;;3.03;70.31;100571.72;6125127;23;20018;-79
2023/10/28 08:19:31;;;;;;;2.65;0.68;;;;;;;3.05;70.06;100569.19;6124143;23;20079;-74
2023/10/28 08:21:59;;;;;;;3.50;0.70;;;;;;;3.08;69.60;100574.38;6121166;23;20137;-76
2023/10/28 08:24:26;;;;;;;1.52;0.50;;;;;;;3.09;69.99;100576.94;6120371;23;20029;-76
2023/10/28 08:26:53;;;;;;;3.10;0.50;;;;;;;3.12;69.91;100579.56;6118032;23;20099;-72
2023/10/28 08:29:20;;;;;;;4.22;2.67;;;;;;;3.15;70.01;100591.63;6120453;23;20045;-72
2023/10/28 08:31:48;;;;;;;6.78;0.88;;;;;;;3.18;69.71;100585.63;6117138;23;20018;-72
2023/10/28 08:34:15;;;;;;;8.98;1.23;;;;;;;3.20;69.85;100591.66;6115022;23;20585;-71
2023/10/28 08:36:42;;;;;;;72.68;12.07;;;;;;;3.21;69.58;100591.66;6113020;23;20022;-71
2023/10/28 08:39:10;;;;;;;19.50;1.20;;;;;;;3.22;69.84;100593.41;6114313;23;20030;-71
2023/10/28 08:41:37;;;;;;;11.00;0.95;;;;;;;3.24;69.72;100589.09;6116121;23;20057;-71
2023/10/28 08:44:05;;;;;;;0.90;0.50;;;;;;;3.26;69.44;100589.13;6118267;23;20021;-70
2023/10/28 08:46:33;;;;;;;2.00;0.70;;;;;;;3.26;69.31;100591.72;6115553;23;20022;-71
2023/10/28 08:49:01;;;;;;;2.53;0.68;;;;;;;3.30;69.18;100596.94;6117696;23;20026;-71
2023/10/28 08:51:30;;;;;;;0.57;0.30;;;;;;;3.28;69.19;100584.84;6118746;23;20461;-71
2023/10/28 08:54:00;;;;;;;6.65;1.75;;;;;;;3.33;69.08;100586.63;6116270;23;20022;-71
2023/10/28 08:56:28;;;;;;;1.55;0.93;;;;;;;3.35;69.23;100589.22;6120177;23;20022;-71
2023/10/28 08:58:55;;;;;;;3.28;0.50;;;;;;;3.37;68.86;100595.25;6115107;23;20040;-71
2023/10/28 09:01:24;;;;;;;1.08;0.47;;;;;;;3.37;68.55;100596.13;6101083;23;20026;-71
2023/10/28 09:03:55;;;;;;;0.80;0.40;;;;;;;3.38;68.58;100608.16;6116954;23;20029;-71
2023/10/28 09:06:23;;;;;;;2.15;0.60;;;;;;;3.38;68.23;100610.75;6118435;23;20029;-71
2023/10/28 09:08:51;;;;;;;0.95;0.50;;;;;;;3.38;68.33;100608.16;6116217;23;20068;-71
2023/10/28 09:11:18;;;;;;;3.22;0.52;;;;;;;3.39;68.44;100606.47;6118050;23;20022;-71
2023/10/28 09:13:46;;;;;;;4.97;1.20;;;;;;;3.43;68.46;100621.13;6114876;23;20026;-71
2023/10/28 09:16:14;;;;;;;2.30;0.73;;;;;;;3.46;67.88;100621.13;6115151;23;20414;-71
2023/10/28 09:18:41;;;;;;;1.02;0.45;;;;;;;3.47;68.10;100627.16;6118129;23;20033;-71
2023/10/28 09:21:09;;;;;;;3.97;0.40;;;;;;;3.49;67.83;100616.00;6121583;23;20036;-76
2023/10/28 09:23:38;;;;;;;2.65;0.43;;;;;;;3.50;67.85;100625.50;6119622;23;20022;-76
2023/10/28 09:26:06;;;;;;;2.88;0.50;;;;;;;3.47;67.99;100612.56;6122331;23;20029;-76
2023/10/28 09:28:33;;;;;;;1.02;0.40;;;;;;;3.54;67.69;100634.13;6117922;23;20022;-77
2023/10/28 09:31:00;;;;;;;0.95;0.50;;;;;;;3.56;67.52;100629.84;6121387;23;20028;-72
2023/10/28 09:33:28;;;;;;;1.88;0.73;;;;;;;3.56;67.16;100635.00;6113119;23;20036;-72
2023/10/28 09:35:55;;;;;;;2.67;0.70;;;;;;;3.57;67.29;100628.97;6119563;23;20468;-72
2023/10/28 09:38:22;;;;;;;1.55;0.60;;;;;;;3.58;67.25;100633.28;6117480;23;20060;-71
2023/10/28 09:40:50;;;;;;;2.50;0.38;;;;;;;3.58;67.23;100628.13;6115394;23;20022;-71
2023/10/28 09:43:17;;;;;;;9.02;0.60;;;;;;;3.59;66.85;100629.88;6118966;23;20022;-71
2023/10/28 09:45:50;;;;;;;15.70;0.98;;;;;;;3.60;66.83;100619.53;6115811;23;20025;-71
2023/10/28 09:48:18;;;;;;;1.63;0.50;;;;;;;3.62;66.75;100629.03;6118568;23;20026;-71
2023/10/28 09:50:48;;;;;;;3.20;0.60;;;;;;;3.62;66.87;100629.88;6117789;23;20041;-72
2023/10/28 09:53:19;;;;;;;1.70;0.30;;;;;;;3.63;66.56;100629.03;6118091;23;20018;-72
2023/10/28 09:55:49;;;;;;;28.20;4.03;;;;;;;3.62;66.54;100629.88;6116441;23;20105;-72
2023/10/28 09:58:23;;;;;;;4.38;0.40;;;;;;;3.64;66.51;100633.31;6119143;23;20146;-71
2023/10/28 10:00:54;;;;;;;3.57;0.40;;;;;;;3.66;66.73;100644.53;6113309;23;20449;-72
2023/10/28 10:03:36;;;;;;;1.63;0.60;;;;;;;3.67;66.76;100645.41;6119560;23;20018;-72
2023/10/28 10:06:03;;;;;;;3.33;0.50;;;;;;;3.69;66.76;100641.13;6118231;23;20030;-72
2023/10/28 10:08:33;;;;;;;1.33;0.30;;;;;;;3.70;66.40;100645.41;6116979;23;20022;-72
2023/10/28 10:11:00;;;;;;;0.90;0.40;;;;;;;3.71;66.10;100636.84;6118522;23;20402;-71
2023/10/28 10:13:28;;;;;;;4.57;0.47;;;;;;;3.70;65.70;100638.56;6115044;23;20022;-71
2023/10/28 10:16:00;;;;;;;1.85;0.47;;;;;;;3.70;66.03;100640.25;6114694;23;20069;-72
2023/10/28 10:18:33;;;;;;;1.15;0.50;;;;;;;3.70;66.06;100641.16;6118749;23;20022;-71
2023/10/28 10:21:09;;;;;;;0.50;0.45;;;;;;;3.72;65.99;100639.41;6118456;23;20080;-71
2023/10/28 10:23:42;;;;;;;0.77;0.40;;;;;;;3.72;65.74;100647.16;6114580;23;20266;-71
2023/10/28 10:26:20;;;;;;;1.95;0.50;;;;;;;3.71;65.43;100648.03;6119242;23;20022;-72
2023/10/28 10:28:48;;;;;;;3.78;0.57;;;;;;;3.70;65.27;100641.16;6118037;23;20022;-71
2023/10/28 10:31:19;;;;;;;0.60;0.40;;;;;;;3.62;65.29;100634.19;6116287;23;20021;-71
2023/10/28 10:33:46;;;;;;;1.70;0.40;;;;;;;3.70;65.72;100641.16;6115078;23;20119;-71
2023/10/28 10:36:17;;;;;;;0.47;0.30;;;;;;;3.69;65.12;100644.56;6117608;23;20028;-71
2023/10/28 10:38:45;;;;;;;1.13;0.40;;;;;;;3.68;64.53;100655.75;6118852;23;20669;-71
2023/10/28 10:41:23;;;;;;;0.98;0.40;;;;;;;3.66;64.21;100641.09;6117246;23;20742;-72
2023/10/28 10:43:51;;;;;;;0.60;0.30;;;;;;;3.67;64.32;100647.97;6119649;23;20349;-73
2023/10/28 10:46:19;;;;;;;1.05;0.40;;;;;;;3.67;64.82;100658.31;6113477;23;20022;-72
2023/10/28 10:48:47;;;;;;;1.08;0.50;;;;;;;3.67;65.18;100656.63;6118176;23;20029;-73
2023/10/28 10:51:15;;;;;;;0.80;0.50;;;;;;;3.67;65.10;100651.47;6116055;23;20034;-73
2023/10/28 10:53:42;;;;;;;3.13;0.50;;;;;;;3.69;64.91;100649.72;6119018;23;20319;-73
2023/10/28 10:56:19;;;;;;;1.27;0.70;;;;;;;3.72;64.98;100646.31;6112193;23;20415;-73
2023/10/28 10:58:46;;;;;;;3.13;0.80;;;;;;;3.72;64.78;100654.91;6116499;23;20022;-73
2023/10/28 11:01:15;;;;;;;5.00;0.60;;;;;;;3.73;64.87;100654.09;6116346;23;20030;-73
2023/10/28 11:03:42;;;;;;;2.15;0.47;;;;;;;3.74;65.20;100652.34;6118003;23;20093;-73
2023/10/28 11:06:10;;;;;;;4.45;0.50;;;;;;;3.74;64.71;100654.94;6119477;23;20022;-72
2023/10/28 11:08:37;;;;;;;81.88;5.53;;;;;;;3.75;64.70;100664.41;6115253;23;20025;-73
2023/10/28 11:11:04;;;;;;;3.83;0.30;;;;;;;3.73;64.54;100656.66;6116076;23;20101;-73
2023/10/28 11:13:31;;;;;;;41.10;3.10;;;;;;;3.74;64.52;100663.56;6115816;23;20125;-71
2023/10/28 11:15:59;;;;;;;1.48;0.50;;;;;;;3.74;64.21;100663.56;6117417;23;20138;-70
2023/10/28 11:18:27;;;;;;;4.32;1.58;;;;;;;3.76;64.28;100666.16;6117638;23;20022;-71
2023/10/28 11:20:54;;;;;;;2.08;0.45;;;;;;;3.77;64.33;100668.75;6117907;23;20476;-70
2023/10/28 11:23:21;;;;;;;2.03;1.00;;;;;;;3.79;64.29;100673.94;6117398;23;20022;-70
2023/10/28 11:25:49;;;;;;;2.65;1.08;;;;;;;3.81;63.99;100675.69;6118867;23;20018;-71
2023/10/28 11:28:16;;;;;;;2.10;0.63;;;;;;;3.82;63.91;100677.41;6114955;23;20029;-70
2023/10/28 11:30:50;;;;;;;1.02;0.57;;;;;;;3.86;63.93;100680.00;6118241;23;20026;-71
2023/10/28 11:33:16;;;;;;;1.02;0.47;;;;;;;3.87;63.17;100673.97;6112845;23;20427;-71
2023/10/28 11:35:45;;;;;;;1.83;0.60;;;;;;;3.88;63.29;100680.88;6119506;23;20022;-71